Weather at Catalina Airport

Public forecast

Using degrees Fahrenheit for public forecast. Weather courtesy of forecast.io.

Current aviation weather report (METAR) for Catalina Airport

2024/06/16 20:51 (retrieved 48 minutes ago)

KAVX 162051Z AUTO 24006KT 7SM CLR 20/15 A2980 RMK AO2 SLP070 T02000150 58003

Closest aviation forecast (TAF) to Catalina Airport

Closest forecast is Long Beach Airport (Daugherty Field), 28.1 nm (52.0 km) NNE.

2024/06/16 18:42 (retrieved 3 hours ago)

TAF KLGB 161740Z 1618/1718 16009KT P6SM SCT019 FM162100 19008KT P6SM SKC FM170100 24006KT P6SM SKC FM170500 21007KT P6SM SKC FM170700 16006KT P6SM OVC010 FM171000 16007KT P6SM OVC008 FM171400 16008KT P6SM OVC012